sensor_id;sensor_type;location;lat;lon;timestamp;P1;durP1;ratioP1;P2;durP2;ratioP2
76439;SDS011;65274;44.982;20.060;2023-02-18T00:01:00;96.78;;;52.67;;
76439;SDS011;65274;44.982;20.060;2023-02-18T00:03:27;100.57;;;54.25;;
76439;SDS011;65274;44.982;20.060;2023-02-18T00:05:53;92.88;;;52.60;;
76439;SDS011;65274;44.982;20.060;2023-02-18T00:08:20;95.38;;;53.30;;
76439;SDS011;65274;44.982;20.060;2023-02-18T00:10:46;91.10;;;49.70;;
76439;SDS011;65274;44.982;20.060;2023-02-18T00:13:12;96.18;;;54.10;;
76439;SDS011;65274;44.982;20.060;2023-02-18T00:15:38;87.80;;;49.55;;
76439;SDS011;65274;44.982;20.060;2023-02-18T00:18:04;90.85;;;52.08;;
76439;SDS011;65274;44.982;20.060;2023-02-18T00:20:31;96.22;;;51.22;;
76439;SDS011;65274;44.982;20.060;2023-02-18T00:23:00;90.03;;;50.58;;
76439;SDS011;65274;44.982;20.060;2023-02-18T00:25:27;97.72;;;55.63;;
76439;SDS011;65274;44.982;20.060;2023-02-18T00:27:53;104.10;;;54.20;;
76439;SDS011;65274;44.982;20.060;2023-02-18T00:30:19;94.75;;;53.78;;
76439;SDS011;65274;44.982;20.060;2023-02-18T00:32:45;86.93;;;49.92;;
76439;SDS011;65274;44.982;20.060;2023-02-18T00:35:11;89.38;;;51.45;;
76439;SDS011;65274;44.982;20.060;2023-02-18T00:37:37;99.85;;;54.95;;
76439;SDS011;65274;44.982;20.060;2023-02-18T00:40:03;89.72;;;50.67;;
76439;SDS011;65274;44.982;20.060;2023-02-18T00:42:30;100.97;;;54.00;;
76439;SDS011;65274;44.982;20.060;2023-02-18T00:44:56;90.38;;;53.65;;
76439;SDS011;65274;44.982;20.060;2023-02-18T00:47:22;109.50;;;57.67;;
76439;SDS011;65274;44.982;20.060;2023-02-18T00:49:48;98.15;;;54.83;;
76439;SDS011;65274;44.982;20.060;2023-02-18T00:52:14;90.80;;;52.28;;
76439;SDS011;65274;44.982;20.060;2023-02-18T00:54:40;88.40;;;47.45;;
76439;SDS011;65274;44.982;20.060;2023-02-18T00:57:06;85.15;;;42.63;;
76439;SDS011;65274;44.982;20.060;2023-02-18T00:59:32;71.95;;;42.20;;
76439;SDS011;65274;44.982;20.060;2023-02-18T01:01:58;71.13;;;39.25;;
76439;SDS011;65274;44.982;20.060;2023-02-18T01:04:24;71.85;;;41.88;;
76439;SDS011;65274;44.982;20.060;2023-02-18T01:06:50;82.60;;;42.80;;
76439;SDS011;65274;44.982;20.060;2023-02-18T01:09:16;73.65;;;41.25;;
76439;SDS011;65274;44.982;20.060;2023-02-18T01:11:42;71.50;;;41.90;;
76439;SDS011;65274;44.982;20.060;2023-02-18T01:14:08;76.03;;;43.70;;
76439;SDS011;65274;44.982;20.060;2023-02-18T01:16:34;82.35;;;43.55;;
76439;SDS011;65274;44.982;20.060;2023-02-18T01:19:00;84.07;;;43.80;;
76439;SDS011;65274;44.982;20.060;2023-02-18T01:21:26;83.70;;;47.75;;
76439;SDS011;65274;44.982;20.060;2023-02-18T01:23:52;82.18;;;44.28;;
76439;SDS011;65274;44.982;20.060;2023-02-18T01:26:19;78.90;;;46.03;;
76439;SDS011;65274;44.982;20.060;2023-02-18T01:28:45;89.95;;;48.33;;
76439;SDS011;65274;44.982;20.060;2023-02-18T01:31:11;82.45;;;46.00;;
76439;SDS011;65274;44.982;20.060;2023-02-18T01:33:37;80.70;;;46.83;;
76439;SDS011;65274;44.982;20.060;2023-02-18T01:36:04;81.45;;;45.53;;
76439;SDS011;65274;44.982;20.060;2023-02-18T01:38:30;85.13;;;48.33;;
76439;SDS011;65274;44.982;20.060;2023-02-18T01:40:56;80.53;;;45.25;;
76439;SDS011;65274;44.982;20.060;2023-02-18T01:43:22;70.13;;;43.67;;
76439;SDS011;65274;44.982;20.060;2023-02-18T01:48:25;74.35;;;43.72;;
76439;SDS011;65274;44.982;20.060;2023-02-18T01:50:55;73.60;;;44.30;;
76439;SDS011;65274;44.982;20.060;2023-02-18T01:53:26;67.47;;;38.80;;
76439;SDS011;65274;44.982;20.060;2023-02-18T01:55:53;69.82;;;41.60;;
76439;SDS011;65274;44.982;20.060;2023-02-18T01:58:19;63.13;;;38.53;;
76439;SDS011;65274;44.982;20.060;2023-02-18T02:00:45;65.95;;;38.90;;
76439;SDS011;65274;44.982;20.060;2023-02-18T02:03:12;60.33;;;35.90;;
76439;SDS011;65274;44.982;20.060;2023-02-18T02:05:38;58.95;;;33.50;;
76439;SDS011;65274;44.982;20.060;2023-02-18T02:08:04;56.55;;;33.58;;
76439;SDS011;65274;44.982;20.060;2023-02-18T02:10:44;63.60;;;37.13;;
76439;SDS011;65274;44.982;20.060;2023-02-18T02:13:22;64.05;;;35.00;;
76439;SDS011;65274;44.982;20.060;2023-02-18T02:20:56;59.53;;;29.30;;
76439;SDS011;65274;44.982;20.060;2023-02-18T02:36:23;40.25;;;23.10;;
76439;SDS011;65274;44.982;20.060;2023-02-18T02:39:12;34.00;;;21.08;;
76439;SDS011;65274;44.982;20.060;2023-02-18T02:46:45;33.90;;;20.55;;
76439;SDS011;65274;44.982;20.060;2023-02-18T02:49:16;35.75;;;19.88;;
76439;SDS011;65274;44.982;20.060;2023-02-18T02:54:30;33.92;;;20.10;;
76439;SDS011;65274;44.982;20.060;2023-02-18T02:57:06;33.75;;;20.40;;
76439;SDS011;65274;44.982;20.060;2023-02-18T02:59:32;35.70;;;20.20;;
76439;SDS011;65274;44.982;20.060;2023-02-18T03:11:58;40.50;;;22.40;;
76439;SDS011;65274;44.982;20.060;2023-02-18T03:14:33;38.47;;;22.90;;
76439;SDS011;65274;44.982;20.060;2023-02-18T03:17:37;39.65;;;22.83;;
76439;SDS011;65274;44.982;20.060;2023-02-18T03:22:41;42.75;;;23.75;;
76439;SDS011;65274;44.982;20.060;2023-02-18T03:25:08;40.58;;;22.30;;
76439;SDS011;65274;44.982;20.060;2023-02-18T03:28:18;44.22;;;24.65;;
76439;SDS011;65274;44.982;20.060;2023-02-18T03:30:26;40.92;;;22.05;;
76439;SDS011;65274;44.982;20.060;2023-02-18T03:32:54;39.47;;;23.33;;
76439;SDS011;65274;44.982;20.060;2023-02-18T03:35:22;40.83;;;23.65;;
76439;SDS011;65274;44.982;20.060;2023-02-18T03:38:02;38.95;;;24.15;;
76439;SDS011;65274;44.982;20.060;2023-02-18T03:40:29;41.92;;;25.48;;
76439;SDS011;65274;44.982;20.060;2023-02-18T03:42:56;43.10;;;23.67;;
76439;SDS011;65274;44.982;20.060;2023-02-18T03:45:22;43.67;;;26.00;;
76439;SDS011;65274;44.982;20.060;2023-02-18T03:47:48;46.92;;;25.83;;
76439;SDS011;65274;44.982;20.060;2023-02-18T03:50:15;46.05;;;25.98;;
76439;SDS011;65274;44.982;20.060;2023-02-18T03:52:41;46.40;;;26.42;;
76439;SDS011;65274;44.982;20.060;2023-02-18T03:55:07;46.22;;;27.35;;
76439;SDS011;65274;44.982;20.060;2023-02-18T03:57:33;49.47;;;26.80;;
76439;SDS011;65274;44.982;20.060;2023-02-18T03:59:59;45.97;;;26.75;;
76439;SDS011;65274;44.982;20.060;2023-02-18T04:02:26;41.80;;;26.15;;
76439;SDS011;65274;44.982;20.060;2023-02-18T04:04:52;43.72;;;27.63;;
76439;SDS011;65274;44.982;20.060;2023-02-18T04:07:18;41.50;;;24.92;;
76439;SDS011;65274;44.982;20.060;2023-02-18T04:09:44;43.30;;;26.80;;
76439;SDS011;65274;44.982;20.060;2023-02-18T04:12:10;45.30;;;26.15;;
76439;SDS011;65274;44.982;20.060;2023-02-18T04:14:36;47.90;;;28.15;;
76439;SDS011;65274;44.982;20.060;2023-02-18T04:17:02;52.80;;;29.02;;
76439;SDS011;65274;44.982;20.060;2023-02-18T04:19:28;45.63;;;28.40;;
76439;SDS011;65274;44.982;20.060;2023-02-18T04:21:54;45.38;;;26.63;;
76439;SDS011;65274;44.982;20.060;2023-02-18T04:24:20;50.72;;;28.73;;
76439;SDS011;65274;44.982;20.060;2023-02-18T04:26:46;51.28;;;27.10;;
76439;SDS011;65274;44.982;20.060;2023-02-18T04:29:12;45.35;;;26.95;;
76439;SDS011;65274;44.982;20.060;2023-02-18T04:31:38;56.50;;;29.02;;
76439;SDS011;65274;44.982;20.060;2023-02-18T04:34:04;49.38;;;27.95;;
76439;SDS011;65274;44.982;20.060;2023-02-18T04:36:32;57.28;;;31.55;;
76439;SDS011;65274;44.982;20.060;2023-02-18T04:38:58;47.13;;;28.15;;
76439;SDS011;65274;44.982;20.060;2023-02-18T04:41:24;49.58;;;26.73;;
76439;SDS011;65274;44.982;20.060;2023-02-18T04:43:50;46.85;;;27.65;;
76439;SDS011;65274;44.982;20.060;2023-02-18T04:46:16;47.92;;;28.38;;
76439;SDS011;65274;44.982;20.060;2023-02-18T04:48:42;42.65;;;23.73;;
76439;SDS011;65274;44.982;20.060;2023-02-18T04:51:09;36.13;;;23.23;;
76439;SDS011;65274;44.982;20.060;2023-02-18T04:53:35;41.60;;;25.42;;
76439;SDS011;65274;44.982;20.060;2023-02-18T04:56:01;39.35;;;23.35;;
76439;SDS011;65274;44.982;20.060;2023-02-18T04:58:27;43.55;;;26.63;;
76439;SDS011;65274;44.982;20.060;2023-02-18T05:00:53;44.10;;;25.08;;
76439;SDS011;65274;44.982;20.060;2023-02-18T05:03:23;39.25;;;24.25;;
76439;SDS011;65274;44.982;20.060;2023-02-18T05:05:49;37.22;;;23.00;;
76439;SDS011;65274;44.982;20.060;2023-02-18T05:08:15;40.72;;;22.85;;
76439;SDS011;65274;44.982;20.060;2023-02-18T05:10:41;43.03;;;22.75;;
76439;SDS011;65274;44.982;20.060;2023-02-18T05:13:07;36.95;;;21.27;;
76439;SDS011;65274;44.982;20.060;2023-02-18T05:15:33;41.50;;;22.73;;
76439;SDS011;65274;44.982;20.060;2023-02-18T05:17:59;34.88;;;19.65;;
76439;SDS011;65274;44.982;20.060;2023-02-18T05:20:25;33.00;;;18.98;;
76439;SDS011;65274;44.982;20.060;2023-02-18T05:22:52;31.42;;;17.75;;
76439;SDS011;65274;44.982;20.060;2023-02-18T05:25:18;29.17;;;16.45;;
76439;SDS011;65274;44.982;20.060;2023-02-18T05:27:44;25.20;;;15.98;;
76439;SDS011;65274;44.982;20.060;2023-02-18T05:30:10;27.70;;;15.95;;
76439;SDS011;65274;44.982;20.060;2023-02-18T05:32:36;26.27;;;16.33;;
76439;SDS011;65274;44.982;20.060;2023-02-18T05:35:02;25.58;;;15.18;;
76439;SDS011;65274;44.982;20.060;2023-02-18T05:37:28;26.58;;;15.10;;
76439;SDS011;65274;44.982;20.060;2023-02-18T05:39:54;26.77;;;15.52;;
76439;SDS011;65274;44.982;20.060;2023-02-18T05:42:20;22.70;;;14.75;;
76439;SDS011;65274;44.982;20.060;2023-02-18T05:44:47;24.90;;;14.27;;
76439;SDS011;65274;44.982;20.060;2023-02-18T05:47:13;25.38;;;13.68;;
76439;SDS011;65274;44.982;20.060;2023-02-18T05:49:40;20.60;;;13.25;;
76439;SDS011;65274;44.982;20.060;2023-02-18T05:52:06;24.38;;;14.45;;
76439;SDS011;65274;44.982;20.060;2023-02-18T05:54:33;24.33;;;14.77;;
76439;SDS011;65274;44.982;20.060;2023-02-18T05:57:00;23.73;;;13.95;;
76439;SDS011;65274;44.982;20.060;2023-02-18T05:59:26;24.75;;;13.80;;
76439;SDS011;65274;44.982;20.060;2023-02-18T06:01:52;24.50;;;14.65;;
76439;SDS011;65274;44.982;20.060;2023-02-18T06:04:18;21.83;;;13.00;;
76439;SDS011;65274;44.982;20.060;2023-02-18T06:06:45;20.20;;;14.07;;
76439;SDS011;65274;44.982;20.060;2023-02-18T06:09:11;28.08;;;15.32;;
76439;SDS011;65274;44.982;20.060;2023-02-18T06:11:38;25.02;;;16.27;;
76439;SDS011;65274;44.982;20.060;2023-02-18T06:14:04;25.58;;;17.73;;
76439;SDS011;65274;44.982;20.060;2023-02-18T06:16:30;30.52;;;18.15;;
76439;SDS011;65274;44.982;20.060;2023-02-18T06:18:56;32.47;;;18.75;;
76439;SDS011;65274;44.982;20.060;2023-02-18T06:21:22;34.47;;;20.88;;
76439;SDS011;65274;44.982;20.060;2023-02-18T06:23:48;39.70;;;24.10;;
76439;SDS011;65274;44.982;20.060;2023-02-18T06:26:14;37.45;;;18.52;;
76439;SDS011;65274;44.982;20.060;2023-02-18T06:28:40;33.25;;;18.80;;
76439;SDS011;65274;44.982;20.060;2023-02-18T06:31:06;32.13;;;19.13;;
76439;SDS011;65274;44.982;20.060;2023-02-18T06:33:32;37.20;;;21.20;;
76439;SDS011;65274;44.982;20.060;2023-02-18T06:36:03;37.22;;;22.70;;
76439;SDS011;65274;44.982;20.060;2023-02-18T06:38:33;36.97;;;21.10;;
76439;SDS011;65274;44.982;20.060;2023-02-18T06:41:00;38.38;;;19.75;;
76439;SDS011;65274;44.982;20.060;2023-02-18T06:43:26;31.25;;;18.85;;
76439;SDS011;65274;44.982;20.060;2023-02-18T06:45:52;36.38;;;21.13;;
76439;SDS011;65274;44.982;20.060;2023-02-18T06:48:18;45.22;;;21.88;;
76439;SDS011;65274;44.982;20.060;2023-02-18T06:50:44;45.17;;;23.08;;
76439;SDS011;65274;44.982;20.060;2023-02-18T06:53:11;40.85;;;23.15;;
76439;SDS011;65274;44.982;20.060;2023-02-18T06:55:38;63.58;;;36.15;;
76439;SDS011;65274;44.982;20.060;2023-02-18T06:58:05;54.08;;;28.88;;
76439;SDS011;65274;44.982;20.060;2023-02-18T07:00:31;70.47;;;34.55;;
76439;SDS011;65274;44.982;20.060;2023-02-18T07:02:57;79.68;;;35.42;;
76439;SDS011;65274;44.982;20.060;2023-02-18T07:05:23;83.55;;;38.08;;
76439;SDS011;65274;44.982;20.060;2023-02-18T07:07:50;72.10;;;37.28;;
76439;SDS011;65274;44.982;20.060;2023-02-18T07:10:16;59.00;;;30.77;;
76439;SDS011;65274;44.982;20.060;2023-02-18T07:12:42;38.35;;;24.08;;
76439;SDS011;65274;44.982;20.060;2023-02-18T07:15:08;37.47;;;22.35;;
76439;SDS011;65274;44.982;20.060;2023-02-18T07:17:34;42.72;;;25.38;;
76439;SDS011;65274;44.982;20.060;2023-02-18T07:20:00;38.33;;;22.67;;
76439;SDS011;65274;44.982;20.060;2023-02-18T07:22:26;36.22;;;23.65;;
76439;SDS011;65274;44.982;20.060;2023-02-18T07:24:52;30.77;;;20.02;;
76439;SDS011;65274;44.982;20.060;2023-02-18T07:27:19;37.83;;;22.17;;
76439;SDS011;65274;44.982;20.060;2023-02-18T07:29:45;33.53;;;20.17;;
76439;SDS011;65274;44.982;20.060;2023-02-18T07:32:12;29.70;;;18.33;;
76439;SDS011;65274;44.982;20.060;2023-02-18T07:34:38;19.55;;;11.88;;
76439;SDS011;65274;44.982;20.060;2023-02-18T07:37:04;22.00;;;12.43;;
76439;SDS011;65274;44.982;20.060;2023-02-18T07:39:38;18.52;;;10.45;;
76439;SDS011;65274;44.982;20.060;2023-02-18T07:42:04;19.02;;;10.32;;
76439;SDS011;65274;44.982;20.060;2023-02-18T07:44:30;16.60;;;10.73;;
76439;SDS011;65274;44.982;20.060;2023-02-18T07:46:56;14.30;;;10.85;;
76439;SDS011;65274;44.982;20.060;2023-02-18T07:49:22;16.80;;;11.38;;
76439;SDS011;65274;44.982;20.060;2023-02-18T07:51:48;18.67;;;10.15;;
76439;SDS011;65274;44.982;20.060;2023-02-18T07:54:14;14.55;;;7.95;;
76439;SDS011;65274;44.982;20.060;2023-02-18T07:56:41;17.20;;;9.90;;
76439;SDS011;65274;44.982;20.060;2023-02-18T07:59:07;15.52;;;9.95;;
76439;SDS011;65274;44.982;20.060;2023-02-18T08:01:33;18.00;;;10.85;;
76439;SDS011;65274;44.982;20.060;2023-02-18T08:03:59;17.75;;;9.80;;
76439;SDS011;65274;44.982;20.060;2023-02-18T08:06:27;18.02;;;9.40;;
76439;SDS011;65274;44.982;20.060;2023-02-18T08:08:55;20.25;;;11.70;;
76439;SDS011;65274;44.982;20.060;2023-02-18T08:11:21;21.30;;;11.13;;
76439;SDS011;65274;44.982;20.060;2023-02-18T08:13:48;20.42;;;11.15;;
76439;SDS011;65274;44.982;20.060;2023-02-18T08:16:17;20.88;;;11.52;;
76439;SDS011;65274;44.982;20.060;2023-02-18T08:18:44;15.10;;;9.00;;
76439;SDS011;65274;44.982;20.060;2023-02-18T08:21:12;14.57;;;9.35;;
76439;SDS011;65274;44.982;20.060;2023-02-18T08:23:38;17.23;;;9.10;;
76439;SDS011;65274;44.982;20.060;2023-02-18T08:26:04;14.88;;;10.45;;
76439;SDS011;65274;44.982;20.060;2023-02-18T08:28:30;15.32;;;9.18;;
76439;SDS011;65274;44.982;20.060;2023-02-18T08:30:56;16.92;;;10.63;;
76439;SDS011;65274;44.982;20.060;2023-02-18T08:33:23;22.38;;;12.88;;
76439;SDS011;65274;44.982;20.060;2023-02-18T08:35:50;18.98;;;13.50;;
76439;SDS011;65274;44.982;20.060;2023-02-18T08:38:16;21.58;;;12.73;;
76439;SDS011;65274;44.982;20.060;2023-02-18T08:40:42;20.90;;;13.38;;
76439;SDS011;65274;44.982;20.060;2023-02-18T08:43:09;21.15;;;13.20;;
76439;SDS011;65274;44.982;20.060;2023-02-18T08:45:35;17.70;;;11.40;;
76439;SDS011;65274;44.982;20.060;2023-02-18T08:48:02;21.70;;;11.70;;
76439;SDS011;65274;44.982;20.060;2023-02-18T08:50:28;23.13;;;13.00;;
76439;SDS011;65274;44.982;20.060;2023-02-18T08:52:55;22.08;;;12.52;;
76439;SDS011;65274;44.982;20.060;2023-02-18T08:55:21;20.95;;;12.57;;
76439;SDS011;65274;44.982;20.060;2023-02-18T08:57:49;22.45;;;13.18;;
76439;SDS011;65274;44.982;20.060;2023-02-18T09:00:16;19.10;;;11.35;;
76439;SDS011;65274;44.982;20.060;2023-02-18T09:02:42;21.27;;;11.57;;
76439;SDS011;65274;44.982;20.060;2023-02-18T09:05:09;24.25;;;13.07;;
76439;SDS011;65274;44.982;20.060;2023-02-18T09:07:35;27.38;;;15.63;;
76439;SDS011;65274;44.982;20.060;2023-02-18T09:10:02;30.27;;;15.48;;
76439;SDS011;65274;44.982;20.060;2023-02-18T09:12:28;26.92;;;16.00;;
76439;SDS011;65274;44.982;20.060;2023-02-18T09:14:54;31.15;;;17.65;;
76439;SDS011;65274;44.982;20.060;2023-02-18T09:17:20;31.45;;;18.15;;
76439;SDS011;65274;44.982;20.060;2023-02-18T09:19:47;26.08;;;15.88;;
76439;SDS011;65274;44.982;20.060;2023-02-18T09:22:13;29.55;;;16.00;;
76439;SDS011;65274;44.982;20.060;2023-02-18T09:24:40;33.67;;;18.92;;
76439;SDS011;65274;44.982;20.060;2023-02-18T09:27:06;28.13;;;18.10;;
76439;SDS011;65274;44.982;20.060;2023-02-18T09:29:33;49.70;;;31.65;;
76439;SDS011;65274;44.982;20.060;2023-02-18T09:32:00;24.08;;;15.20;;
76439;SDS011;65274;44.982;20.060;2023-02-18T09:34:26;18.45;;;12.57;;
76439;SDS011;65274;44.982;20.060;2023-02-18T09:36:52;23.58;;;14.48;;
76439;SDS011;65274;44.982;20.060;2023-02-18T09:39:18;25.55;;;15.07;;
76439;SDS011;65274;44.982;20.060;2023-02-18T09:41:49;35.33;;;18.17;;
76439;SDS011;65274;44.982;20.060;2023-02-18T09:44:35;39.72;;;17.58;;
76439;SDS011;65274;44.982;20.060;2023-02-18T09:47:19;27.75;;;17.27;;
76439;SDS011;65274;44.982;20.060;2023-02-18T09:49:47;25.95;;;16.58;;
76439;SDS011;65274;44.982;20.060;2023-02-18T09:52:25;24.73;;;14.37;;
76439;SDS011;65274;44.982;20.060;2023-02-18T09:54:53;26.52;;;15.73;;
76439;SDS011;65274;44.982;20.060;2023-02-18T09:57:29;28.73;;;18.25;;
76439;SDS011;65274;44.982;20.060;2023-02-18T10:00:00;27.08;;;17.35;;
76439;SDS011;65274;44.982;20.060;2023-02-18T10:02:28;53.22;;;20.88;;
76439;SDS011;65274;44.982;20.060;2023-02-18T10:04:55;24.73;;;14.27;;
76439;SDS011;65274;44.982;20.060;2023-02-18T10:07:24;22.95;;;14.82;;
76439;SDS011;65274;44.982;20.060;2023-02-18T10:09:51;27.00;;;14.40;;
76439;SDS011;65274;44.982;20.060;2023-02-18T10:12:19;25.17;;;15.82;;
76439;SDS011;65274;44.982;20.060;2023-02-18T10:17:12;25.38;;;14.73;;
76439;SDS011;65274;44.982;20.060;2023-02-18T10:19:39;19.67;;;13.38;;
76439;SDS011;65274;44.982;20.060;2023-02-18T10:22:06;20.38;;;14.25;;
76439;SDS011;65274;44.982;20.060;2023-02-18T10:24:34;25.20;;;15.30;;
76439;SDS011;65274;44.982;20.060;2023-02-18T10:27:01;25.90;;;16.10;;
76439;SDS011;65274;44.982;20.060;2023-02-18T10:29:28;23.75;;;14.50;;
76439;SDS011;65274;44.982;20.060;2023-02-18T10:35:34;20.13;;;13.90;;
76439;SDS011;65274;44.982;20.060;2023-02-18T10:48:06;47.67;;;28.63;;
76439;SDS011;65274;44.982;20.060;2023-02-18T10:50:43;34.55;;;21.35;;
76439;SDS011;65274;44.982;20.060;2023-02-18T10:53:13;25.92;;;16.77;;
76439;SDS011;65274;44.982;20.060;2023-02-18T10:55:45;34.60;;;22.25;;
76439;SDS011;65274;44.982;20.060;2023-02-18T10:58:31;34.33;;;19.45;;
76439;SDS011;65274;44.982;20.060;2023-02-18T11:01:12;54.17;;;29.83;;
76439;SDS011;65274;44.982;20.060;2023-02-18T11:03:46;63.15;;;34.25;;
76439;SDS011;65274;44.982;20.060;2023-02-18T11:06:20;27.40;;;17.92;;
76439;SDS011;65274;44.982;20.060;2023-02-18T11:08:46;29.85;;;19.13;;
76439;SDS011;65274;44.982;20.060;2023-02-18T11:11:36;29.83;;;18.67;;
76439;SDS011;65274;44.982;20.060;2023-02-18T11:14:00;35.30;;;19.15;;
76439;SDS011;65274;44.982;20.060;2023-02-18T11:16:39;48.40;;;28.35;;
76439;SDS011;65274;44.982;20.060;2023-02-18T11:19:29;33.53;;;20.30;;
76439;SDS011;65274;44.982;20.060;2023-02-18T11:21:51;43.75;;;30.65;;
76439;SDS011;65274;44.982;20.060;2023-02-18T11:24:31;29.48;;;16.35;;
76439;SDS011;65274;44.982;20.060;2023-02-18T11:26:57;27.75;;;17.75;;
76439;SDS011;65274;44.982;20.060;2023-02-18T11:29:23;20.73;;;14.70;;
76439;SDS011;65274;44.982;20.060;2023-02-18T11:31:51;26.25;;;19.15;;
76439;SDS011;65274;44.982;20.060;2023-02-18T11:36:44;26.45;;;14.50;;
76439;SDS011;65274;44.982;20.060;2023-02-18T11:39:21;26.73;;;15.27;;
76439;SDS011;65274;44.982;20.060;2023-02-18T11:41:53;23.08;;;14.50;;
76439;SDS011;65274;44.982;20.060;2023-02-18T11:44:21;22.38;;;14.23;;
76439;SDS011;65274;44.982;20.060;2023-02-18T11:46:55;27.60;;;15.38;;
76439;SDS011;65274;44.982;20.060;2023-02-18T11:49:22;25.77;;;15.73;;
76439;SDS011;65274;44.982;20.060;2023-02-18T11:51:49;22.97;;;16.33;;
76439;SDS011;65274;44.982;20.060;2023-02-18T11:54:26;23.02;;;15.43;;
76439;SDS011;65274;44.982;20.060;2023-02-18T11:57:12;22.35;;;14.75;;
76439;SDS011;65274;44.982;20.060;2023-02-18T11:59:39;21.38;;;13.77;;
76439;SDS011;65274;44.982;20.060;2023-02-18T12:09:50;22.67;;;15.18;;
76439;SDS011;65274;44.982;20.060;2023-02-18T12:12:23;27.40;;;17.38;;
76439;SDS011;65274;44.982;20.060;2023-02-18T12:14:49;21.95;;;15.43;;
76439;SDS011;65274;44.982;20.060;2023-02-18T12:30:36;22.27;;;14.75;;
76439;SDS011;65274;44.982;20.060;2023-02-18T12:39:02;30.38;;;19.42;;
76439;SDS011;65274;44.982;20.060;2023-02-18T12:41:48;24.45;;;17.05;;
76439;SDS011;65274;44.982;20.060;2023-02-18T12:49:40;27.73;;;16.23;;
76439;SDS011;65274;44.982;20.060;2023-02-18T12:54:37;23.67;;;16.35;;
76439;SDS011;65274;44.982;20.060;2023-02-18T13:10:24;23.25;;;16.42;;
76439;SDS011;65274;44.982;20.060;2023-02-18T13:12:59;24.52;;;16.17;;
76439;SDS011;65274;44.982;20.060;2023-02-18T13:15:38;26.58;;;16.75;;
76439;SDS011;65274;44.982;20.060;2023-02-18T13:18:08;33.15;;;17.08;;
76439;SDS011;65274;44.982;20.060;2023-02-18T13:20:37;67.50;;;36.55;;
76439;SDS011;65274;44.982;20.060;2023-02-18T13:23:05;29.80;;;17.58;;
76439;SDS011;65274;44.982;20.060;2023-02-18T13:25:32;30.40;;;18.80;;
76439;SDS011;65274;44.982;20.060;2023-02-18T13:35:40;64.60;;;32.80;;
76439;SDS011;65274;44.982;20.060;2023-02-18T13:38:25;30.20;;;18.17;;
76439;SDS011;65274;44.982;20.060;2023-02-18T13:40:55;52.20;;;30.23;;
76439;SDS011;65274;44.982;20.060;2023-02-18T13:43:34;36.30;;;22.52;;
76439;SDS011;65274;44.982;20.060;2023-02-18T13:48:27;20.67;;;14.38;;
76439;SDS011;65274;44.982;20.060;2023-02-18T13:50:54;47.67;;;27.25;;
76439;SDS011;65274;44.982;20.060;2023-02-18T13:53:25;23.92;;;16.13;;
76439;SDS011;65274;44.982;20.060;2023-02-18T13:56:18;27.40;;;17.42;;
76439;SDS011;65274;44.982;20.060;2023-02-18T14:01:21;37.00;;;22.05;;
76439;SDS011;65274;44.982;20.060;2023-02-18T14:03:52;25.10;;;15.90;;
76439;SDS011;65274;44.982;20.060;2023-02-18T14:06:30;26.95;;;16.15;;
76439;SDS011;65274;44.982;20.060;2023-02-18T14:09:38;29.80;;;16.03;;
76439;SDS011;65274;44.982;20.060;2023-02-18T14:11:46;21.02;;;13.68;;
76439;SDS011;65274;44.982;20.060;2023-02-18T14:19:35;46.17;;;27.30;;
76439;SDS011;65274;44.982;20.060;2023-02-18T14:24:47;26.80;;;15.32;;
76439;SDS011;65274;44.982;20.060;2023-02-18T14:27:14;17.88;;;13.18;;
76439;SDS011;65274;44.982;20.060;2023-02-18T14:29:40;21.60;;;12.77;;
76439;SDS011;65274;44.982;20.060;2023-02-18T14:32:11;21.02;;;14.32;;
76439;SDS011;65274;44.982;20.060;2023-02-18T14:34:45;29.20;;;17.67;;
76439;SDS011;65274;44.982;20.060;2023-02-18T14:40:00;26.77;;;16.70;;
76439;SDS011;65274;44.982;20.060;2023-02-18T14:50:16;29.05;;;17.02;;
76439;SDS011;65274;44.982;20.060;2023-02-18T14:52:44;22.05;;;13.93;;
76439;SDS011;65274;44.982;20.060;2023-02-18T14:55:18;23.05;;;13.48;;
76439;SDS011;65274;44.982;20.060;2023-02-18T14:57:45;25.88;;;14.23;;
76439;SDS011;65274;44.982;20.060;2023-02-18T15:00:16;23.25;;;13.98;;
76439;SDS011;65274;44.982;20.060;2023-02-18T15:02:43;22.55;;;14.07;;
76439;SDS011;65274;44.982;20.060;2023-02-18T15:07:38;18.50;;;13.23;;
76439;SDS011;65274;44.982;20.060;2023-02-18T15:10:04;21.83;;;12.40;;
76439;SDS011;65274;44.982;20.060;2023-02-18T15:12:37;21.60;;;13.85;;
76439;SDS011;65274;44.982;20.060;2023-02-18T15:15:03;18.70;;;12.18;;
76439;SDS011;65274;44.982;20.060;2023-02-18T15:17:30;21.30;;;13.10;;
76439;SDS011;65274;44.982;20.060;2023-02-18T15:19:57;21.77;;;12.23;;
76439;SDS011;65274;44.982;20.060;2023-02-18T15:22:25;30.02;;;14.93;;
76439;SDS011;65274;44.982;20.060;2023-02-18T15:24:55;31.15;;;16.15;;
76439;SDS011;65274;44.982;20.060;2023-02-18T15:27:30;26.63;;;15.25;;
76439;SDS011;65274;44.982;20.060;2023-02-18T15:30:02;29.92;;;17.60;;
76439;SDS011;65274;44.982;20.060;2023-02-18T15:32:30;29.23;;;18.15;;
76439;SDS011;65274;44.982;20.060;2023-02-18T15:34:57;30.67;;;16.63;;
76439;SDS011;65274;44.982;20.060;2023-02-18T15:37:26;33.35;;;20.83;;
76439;SDS011;65274;44.982;20.060;2023-02-18T15:39:52;36.13;;;23.20;;
76439;SDS011;65274;44.982;20.060;2023-02-18T15:44:45;46.60;;;25.63;;
76439;SDS011;65274;44.982;20.060;2023-02-18T15:47:12;60.83;;;30.30;;
76439;SDS011;65274;44.982;20.060;2023-02-18T15:49:38;72.65;;;41.22;;
76439;SDS011;65274;44.982;20.060;2023-02-18T15:52:05;57.78;;;32.47;;
76439;SDS011;65274;44.982;20.060;2023-02-18T15:54:33;61.00;;;32.85;;
76439;SDS011;65274;44.982;20.060;2023-02-18T15:59:34;46.88;;;25.33;;
76439;SDS011;65274;44.982;20.060;2023-02-18T16:04:34;31.15;;;19.58;;
76439;SDS011;65274;44.982;20.060;2023-02-18T16:07:03;34.65;;;19.60;;
76439;SDS011;65274;44.982;20.060;2023-02-18T16:09:31;31.65;;;19.02;;
76439;SDS011;65274;44.982;20.060;2023-02-18T16:11:59;32.97;;;19.77;;
76439;SDS011;65274;44.982;20.060;2023-02-18T16:17:06;28.73;;;17.35;;
76439;SDS011;65274;44.982;20.060;2023-02-18T16:19:32;33.00;;;20.08;;
76439;SDS011;65274;44.982;20.060;2023-02-18T16:22:03;32.78;;;20.85;;
76439;SDS011;65274;44.982;20.060;2023-02-18T16:24:30;50.25;;;26.20;;
76439;SDS011;65274;44.982;20.060;2023-02-18T16:26:58;58.00;;;26.23;;
76439;SDS011;65274;44.982;20.060;2023-02-18T16:29:25;65.70;;;28.60;;
76439;SDS011;65274;44.982;20.060;2023-02-18T16:31:57;50.65;;;27.75;;
76439;SDS011;65274;44.982;20.060;2023-02-18T16:34:23;58.90;;;28.27;;
76439;SDS011;65274;44.982;20.060;2023-02-18T16:36:50;49.05;;;28.20;;
76439;SDS011;65274;44.982;20.060;2023-02-18T16:39:35;81.82;;;32.63;;
76439;SDS011;65274;44.982;20.060;2023-02-18T16:42:02;74.60;;;39.97;;
76439;SDS011;65274;44.982;20.060;2023-02-18T16:44:28;90.18;;;49.70;;
76439;SDS011;65274;44.982;20.060;2023-02-18T16:46:54;99.10;;;54.88;;